createdAt,value
2023-04-29T00:00:29.599Z,1006.53
2023-04-29T00:01:29.571Z,1006.50
2023-04-29T00:02:31.829Z,1006.50
2023-04-29T00:03:29.804Z,1006.51
2023-04-29T00:04:29.633Z,1006.48
2023-04-29T00:05:29.475Z,1006.48
2023-04-29T00:06:29.463Z,1006.49
2023-04-29T00:07:29.376Z,1006.44
2023-04-29T00:08:29.349Z,1006.45
2023-04-29T00:09:29.332Z,1006.41
2023-04-29T00:10:29.351Z,1006.42
2023-04-29T00:11:29.270Z,1006.41
2023-04-29T00:12:29.230Z,1006.36
2023-04-29T00:13:29.195Z,1006.35
2023-04-29T00:14:29.173Z,1006.35
2023-04-29T00:15:29.147Z,1006.36
2023-04-29T00:16:29.226Z,1006.35
2023-04-29T00:17:29.064Z,1006.38
2023-04-29T00:18:29.028Z,1006.38
2023-04-29T00:19:29.004Z,1006.42
2023-04-29T00:20:28.963Z,1006.40
2023-04-29T00:21:28.930Z,1006.44
2023-04-29T00:22:28.943Z,1006.48
2023-04-29T00:23:28.873Z,1006.48
2023-04-29T00:24:28.838Z,1006.47
2023-04-29T00:25:28.797Z,1006.49
2023-04-29T00:26:34.481Z,1006.54
2023-04-29T00:27:28.830Z,1006.54
2023-04-29T00:28:28.784Z,1006.53
2023-04-29T00:29:28.676Z,1006.52
2023-04-29T00:30:28.638Z,1006.52
2023-04-29T00:31:28.658Z,1006.48
2023-04-29T00:32:28.600Z,1006.49
2023-04-29T00:33:28.653Z,1006.41
2023-04-29T00:34:28.514Z,1006.40
2023-04-29T00:35:28.504Z,1006.37
2023-04-29T00:36:28.456Z,1006.36
2023-04-29T00:37:28.441Z,1006.32
2023-04-29T00:38:28.378Z,1006.30
2023-04-29T00:39:28.428Z,1006.35
2023-04-29T00:40:28.318Z,1006.29
2023-04-29T00:41:28.299Z,1006.32
2023-04-29T00:42:28.258Z,1006.30
2023-04-29T00:43:28.224Z,1006.34
2023-04-29T00:44:28.229Z,1006.29
2023-04-29T00:45:28.212Z,1006.32
2023-04-29T00:46:28.282Z,1006.29
2023-04-29T00:47:28.135Z,1006.26
2023-04-29T00:48:28.597Z,1006.25
2023-04-29T00:49:28.022Z,1006.26
2023-04-29T00:50:28.594Z,1006.25
2023-04-29T00:51:27.993Z,1006.25
2023-04-29T00:52:27.968Z,1006.28
2023-04-29T00:53:27.922Z,1006.29
2023-04-29T00:54:27.861Z,1006.29
2023-04-29T00:55:27.844Z,1006.31
2023-04-29T00:56:29.482Z,1006.29
2023-04-29T00:57:27.788Z,1006.29
2023-04-29T00:58:27.783Z,1006.35
2023-04-29T00:59:27.728Z,1006.36
2023-04-29T01:00:28.600Z,1006.35
2023-04-29T01:01:27.737Z,1006.32
2023-04-29T01:02:27.668Z,1006.34
2023-04-29T01:03:27.649Z,1006.34
2023-04-29T01:04:27.645Z,1006.31
2023-04-29T01:05:27.527Z,1006.34
2023-04-29T01:06:27.486Z,1006.39
2023-04-29T01:07:27.441Z,1006.38
2023-04-29T01:08:27.413Z,1006.39
2023-04-29T01:09:27.407Z,1006.34
2023-04-29T01:10:28.989Z,1006.38
2023-04-29T01:11:27.317Z,1006.37
2023-04-29T01:12:27.336Z,1006.38
2023-04-29T01:13:27.249Z,1006.39
2023-04-29T01:14:27.237Z,1006.39
2023-04-29T01:15:27.194Z,1006.39
2023-04-29T01:16:27.281Z,1006.37
2023-04-29T01:17:27.143Z,1006.40
2023-04-29T01:18:27.105Z,1006.39
2023-04-29T01:19:27.117Z,1006.38
2023-04-29T01:20:27.032Z,1006.39
2023-04-29T01:21:27.997Z,1006.34
2023-04-29T01:22:26.971Z,1006.33
2023-04-29T01:23:26.947Z,1006.31
2023-04-29T01:24:26.970Z,1006.32
2023-04-29T01:25:26.864Z,1006.30
2023-04-29T01:26:26.834Z,1006.27
2023-04-29T01:27:27.619Z,1006.24
2023-04-29T01:28:26.783Z,1006.25
2023-04-29T01:29:26.794Z,1006.27
2023-04-29T01:30:26.713Z,1006.30
2023-04-29T01:31:26.691Z,1006.28
2023-04-29T01:32:26.694Z,1006.26
2023-04-29T01:33:26.611Z,1006.25
2023-04-29T01:34:26.586Z,1006.28
2023-04-29T01:35:26.723Z,1006.27
2023-04-29T01:36:26.525Z,1006.31
2023-04-29T01:37:26.490Z,1006.28
2023-04-29T01:38:26.477Z,1006.26
2023-04-29T01:39:26.408Z,1006.27
2023-04-29T01:40:26.405Z,1006.29
2023-04-29T01:41:26.448Z,1006.26
2023-04-29T01:42:26.342Z,1006.26
2023-04-29T01:43:26.404Z,1006.27
2023-04-29T01:44:26.352Z,1006.24
2023-04-29T01:45:26.220Z,1006.24
2023-04-29T01:46:26.251Z,1006.25
2023-04-29T01:47:26.254Z,1006.24
2023-04-29T01:48:26.141Z,1006.23
2023-04-29T01:49:26.087Z,1006.24
2023-04-29T01:50:26.065Z,1006.22
2023-04-29T01:51:26.051Z,1006.19
2023-04-29T01:52:26.004Z,1006.18
2023-04-29T01:53:26.169Z,1006.19
2023-04-29T01:54:25.937Z,1006.21
2023-04-29T01:55:25.921Z,1006.15
2023-04-29T01:56:25.866Z,1006.22
2023-04-29T01:57:25.883Z,1006.23
2023-04-29T01:58:25.807Z,1006.24
2023-04-29T01:59:25.865Z,1006.22
2023-04-29T02:00:25.748Z,1006.20
2023-04-29T02:01:26.641Z,1006.22
2023-04-29T02:02:25.740Z,1006.22
2023-04-29T02:03:25.712Z,1006.18
2023-04-29T02:04:25.668Z,1006.21
2023-04-29T02:05:25.705Z,1006.20
2023-04-29T02:06:25.542Z,1006.18
2023-04-29T02:07:25.541Z,1006.18
2023-04-29T02:08:25.487Z,1006.17
2023-04-29T02:09:26.117Z,1006.16
2023-04-29T02:10:25.415Z,1006.15
2023-04-29T02:11:25.437Z,1006.16
2023-04-29T02:12:25.364Z,1006.16
2023-04-29T02:13:25.327Z,1006.17
2023-04-29T02:14:25.299Z,1006.13
2023-04-29T02:15:25.258Z,1006.12
2023-04-29T02:16:25.269Z,1006.17
2023-04-29T02:17:25.280Z,1006.13
2023-04-29T02:18:25.155Z,1006.17
2023-04-29T02:19:25.159Z,1006.17
2023-04-29T02:20:25.112Z,1006.17
2023-04-29T02:21:25.069Z,1006.18
2023-04-29T02:22:25.095Z,1006.16
2023-04-29T02:23:25.015Z,1006.17
2023-04-29T02:24:24.963Z,1006.16
2023-04-29T02:25:24.945Z,1006.21
2023-04-29T02:26:24.913Z,1006.15
2023-04-29T02:27:24.965Z,1006.17
2023-04-29T02:28:24.836Z,1006.15
2023-04-29T02:29:24.810Z,1006.14
2023-04-29T02:30:24.775Z,1006.12
2023-04-29T02:31:24.852Z,1006.15
2023-04-29T02:32:24.709Z,1006.18
2023-04-29T02:33:24.684Z,1006.15
2023-04-29T02:34:24.647Z,1006.14
2023-04-29T02:35:24.620Z,1006.11
2023-04-29T02:36:24.673Z,1006.11
2023-04-29T02:37:24.556Z,1006.10
2023-04-29T02:38:24.539Z,1006.13
2023-04-29T02:39:24.492Z,1006.15
2023-04-29T02:40:24.462Z,1006.13
2023-04-29T02:41:24.423Z,1006.13
2023-04-29T02:42:24.470Z,1006.14
2023-04-29T02:43:24.372Z,1006.13
2023-04-29T02:44:24.328Z,1006.11
2023-04-29T02:45:24.297Z,1006.12
2023-04-29T02:46:24.391Z,1006.12
2023-04-29T02:47:24.239Z,1006.09
2023-04-29T02:48:24.258Z,1006.09
2023-04-29T02:49:24.176Z,1006.10
2023-04-29T02:50:24.129Z,1006.06
2023-04-29T02:51:24.113Z,1006.05
2023-04-29T02:52:24.129Z,1006.05
2023-04-29T02:53:24.050Z,1006.08
2023-04-29T02:54:24.005Z,1006.09
2023-04-29T02:55:23.998Z,1006.07
2023-04-29T02:56:23.946Z,1006.07
2023-04-29T02:57:23.914Z,1006.09
2023-04-29T02:58:23.930Z,1006.13
2023-04-29T02:59:23.841Z,1006.09
2023-04-29T03:00:23.814Z,1006.12
2023-04-29T03:01:23.825Z,1006.13
2023-04-29T03:02:23.917Z,1006.12
2023-04-29T03:03:24.281Z,1006.14
2023-04-29T03:04:23.788Z,1006.04
2023-04-29T03:05:23.659Z,1006.12
2023-04-29T03:06:23.620Z,1006.09
2023-04-29T03:07:23.593Z,1006.14
2023-04-29T03:08:23.617Z,1006.09
2023-04-29T03:09:23.529Z,1006.09
2023-04-29T03:10:23.493Z,1006.09
2023-04-29T03:11:23.459Z,1006.05
2023-04-29T03:12:23.432Z,1006.07
2023-04-29T03:13:23.403Z,1006.04
2023-04-29T03:14:23.416Z,1006.05
2023-04-29T03:15:23.434Z,1006.06
2023-04-29T03:16:23.355Z,1006.03
2023-04-29T03:17:23.268Z,1006.08
2023-04-29T03:18:23.313Z,1006.04
2023-04-29T03:19:23.193Z,1006.02
2023-04-29T03:20:23.166Z,1006.06
2023-04-29T03:21:23.128Z,1006.05
2023-04-29T03:22:23.098Z,1006.02
2023-04-29T03:23:23.132Z,1006.07
2023-04-29T03:24:23.030Z,1006.00
2023-04-29T03:25:23.007Z,1005.99
2023-04-29T03:26:22.991Z,1005.99
2023-04-29T03:27:22.936Z,1005.96
2023-04-29T03:28:22.971Z,1005.98
2023-04-29T03:29:22.878Z,1006.00
2023-04-29T03:30:22.851Z,1005.98
2023-04-29T03:31:22.896Z,1005.94
2023-04-29T03:32:22.856Z,1005.95
2023-04-29T03:33:22.738Z,1005.93
2023-04-29T03:34:22.806Z,1005.92
2023-04-29T03:35:22.675Z,1005.91
2023-04-29T03:36:22.643Z,1005.92
2023-04-29T03:37:22.608Z,1005.96
2023-04-29T03:38:22.585Z,1005.99
2023-04-29T03:39:22.552Z,1005.99
2023-04-29T03:40:22.588Z,1005.98
2023-04-29T03:41:22.485Z,1005.98
2023-04-29T03:42:22.458Z,1005.98
2023-04-29T03:43:22.426Z,1005.97
2023-04-29T03:44:22.442Z,1005.95
2023-04-29T03:45:22.361Z,1005.96
2023-04-29T03:46:22.419Z,1005.98
2023-04-29T03:47:22.351Z,1005.98
2023-04-29T03:48:22.265Z,1005.99
2023-04-29T03:49:22.232Z,1006.01
2023-04-29T03:50:22.192Z,1005.96
2023-04-29T03:51:22.159Z,1005.99
2023-04-29T03:52:22.189Z,1005.99
2023-04-29T03:53:22.124Z,1005.98
2023-04-29T03:54:22.072Z,1006.00
2023-04-29T03:55:22.035Z,1006.02
2023-04-29T03:56:22.007Z,1005.98
2023-04-29T03:57:22.039Z,1005.97
2023-04-29T03:58:21.997Z,1006.00
2023-04-29T03:59:21.908Z,1006.02
2023-04-29T04:00:21.874Z,1006.01
2023-04-29T04:01:21.852Z,1006.03
2023-04-29T04:02:21.960Z,1006.04
2023-04-29T04:03:21.929Z,1006.06
2023-04-29T04:04:21.936Z,1006.05
2023-04-29T04:05:21.722Z,1006.11
2023-04-29T04:06:21.690Z,1006.08
2023-04-29T04:07:21.644Z,1006.10
2023-04-29T04:08:21.619Z,1006.12
2023-04-29T04:09:21.636Z,1006.14
2023-04-29T04:10:21.620Z,1006.13
2023-04-29T04:11:21.640Z,1006.13
2023-04-29T04:12:25.032Z,1006.11
2023-04-29T04:13:21.452Z,1006.12
2023-04-29T04:14:21.420Z,1006.16
2023-04-29T04:15:21.449Z,1006.18
2023-04-29T04:16:21.404Z,1006.19
2023-04-29T04:17:21.350Z,1006.16
2023-04-29T04:18:21.399Z,1006.16
2023-04-29T04:19:21.260Z,1006.18
2023-04-29T04:20:21.237Z,1006.20
2023-04-29T04:21:21.213Z,1006.17
2023-04-29T04:22:22.145Z,1006.20
2023-04-29T04:23:21.140Z,1006.19
2023-04-29T04:24:21.156Z,1006.18
2023-04-29T04:25:21.067Z,1006.18
2023-04-29T04:26:21.036Z,1006.19
2023-04-29T04:27:21.008Z,1006.18
2023-04-29T04:28:20.978Z,1006.18
2023-04-29T04:29:20.996Z,1006.21
2023-04-29T04:30:20.948Z,1006.20
2023-04-29T04:31:20.904Z,1006.21
2023-04-29T04:32:20.863Z,1006.20
2023-04-29T04:33:20.819Z,1006.20
2023-04-29T04:34:20.780Z,1006.21
2023-04-29T04:35:20.807Z,1006.20
2023-04-29T04:36:20.715Z,1006.22
2023-04-29T04:37:20.702Z,1006.21
2023-04-29T04:38:20.665Z,1006.22
2023-04-29T04:39:20.623Z,1006.23
2023-04-29T04:40:20.651Z,1006.22
2023-04-29T04:41:20.568Z,1006.26
2023-04-29T04:42:20.533Z,1006.25
2023-04-29T04:43:20.524Z,1006.25
2023-04-29T04:44:20.475Z,1006.23
2023-04-29T04:45:20.498Z,1006.24
2023-04-29T04:46:20.452Z,1006.25
2023-04-29T04:47:20.387Z,1006.24
2023-04-29T04:48:20.340Z,1006.27
2023-04-29T04:49:20.336Z,1006.28
2023-04-29T04:50:22.053Z,1006.24
2023-04-29T04:51:20.348Z,1006.24
2023-04-29T04:52:20.210Z,1006.25
2023-04-29T04:53:20.224Z,1006.26
2023-04-29T04:54:20.149Z,1006.27
2023-04-29T04:55:20.144Z,1006.30
2023-04-29T04:56:20.110Z,1006.28
2023-04-29T04:57:20.113Z,1006.28
2023-04-29T04:58:20.033Z,1006.34
2023-04-29T04:59:19.996Z,1006.31
2023-04-29T05:00:19.962Z,1006.34
2023-04-29T05:01:21.617Z,1006.29
2023-04-29T05:02:20.058Z,1006.36
2023-04-29T05:03:19.927Z,1006.37
2023-04-29T05:04:19.991Z,1006.34
2023-04-29T05:05:19.805Z,1006.38
2023-04-29T05:06:19.770Z,1006.35
2023-04-29T05:07:19.753Z,1006.39
2023-04-29T05:08:19.762Z,1006.34
2023-04-29T05:09:19.675Z,1006.36
2023-04-29T05:10:19.643Z,1006.35
2023-04-29T05:11:19.604Z,1006.36
2023-04-29T05:12:19.575Z,1006.38
2023-04-29T05:13:19.610Z,1006.39
2023-04-29T05:14:19.501Z,1006.35
2023-04-29T05:15:19.483Z,1006.38
2023-04-29T05:16:19.515Z,1006.41
2023-04-29T05:17:19.569Z,1006.40
2023-04-29T05:18:19.389Z,1006.41
2023-04-29T05:19:19.412Z,1006.42
2023-04-29T05:20:19.327Z,1006.42
2023-04-29T05:21:19.303Z,1006.45
2023-04-29T05:22:19.286Z,1006.46
2023-04-29T05:23:19.227Z,1006.45
2023-04-29T05:24:19.199Z,1006.42
2023-04-29T05:25:19.235Z,1006.44
2023-04-29T05:26:19.135Z,1006.43
2023-04-29T05:27:19.116Z,1006.45
2023-04-29T05:28:19.072Z,1006.41
2023-04-29T05:29:19.038Z,1006.42
2023-04-29T05:30:19.006Z,1006.48
2023-04-29T05:31:19.072Z,1006.46
2023-04-29T05:32:18.956Z,1006.48
2023-04-29T05:33:18.919Z,1006.47
2023-04-29T05:34:18.879Z,1006.45
2023-04-29T05:35:18.845Z,1006.46
2023-04-29T05:36:18.822Z,1006.50
2023-04-29T05:37:20.061Z,1006.48
2023-04-29T05:38:18.799Z,1006.48
2023-04-29T05:39:18.713Z,1006.51
2023-04-29T05:40:18.690Z,1006.51
2023-04-29T05:41:18.665Z,1006.52
2023-04-29T05:42:18.620Z,1006.51
2023-04-29T05:43:18.683Z,1006.52
2023-04-29T05:44:18.571Z,1006.53
2023-04-29T05:45:18.532Z,1006.56
2023-04-29T05:46:18.515Z,1006.57
2023-04-29T05:47:18.458Z,1006.60
2023-04-29T05:48:18.447Z,1006.60
2023-04-29T05:49:18.459Z,1006.60
2023-04-29T05:50:18.375Z,1006.62
2023-04-29T05:51:18.335Z,1006.59
2023-04-29T05:52:18.302Z,1006.62
2023-04-29T05:53:18.270Z,1006.60
2023-04-29T05:54:18.340Z,1006.60
2023-04-29T05:55:18.207Z,1006.64
2023-04-29T05:56:18.178Z,1006.63
2023-04-29T05:57:18.147Z,1006.67
2023-04-29T05:58:18.112Z,1006.68
2023-04-29T05:59:18.089Z,1006.69
2023-04-29T06:00:18.117Z,1006.67
2023-04-29T06:01:18.022Z,1006.69
2023-04-29T06:02:18.104Z,1006.73
2023-04-29T06:03:18.025Z,1006.70
2023-04-29T06:04:18.199Z,1006.74
2023-04-29T06:05:18.311Z,1006.74
2023-04-29T06:06:17.963Z,1006.74
2023-04-29T06:07:19.936Z,1006.74
2023-04-29T06:08:17.824Z,1006.76
2023-04-29T06:09:26.902Z,1006.78
2023-04-29T06:10:17.769Z,1006.80
2023-04-29T06:11:17.702Z,1006.81
2023-04-29T06:12:17.719Z,1006.80
2023-04-29T06:13:17.634Z,1006.82
2023-04-29T06:14:17.622Z,1006.79
2023-04-29T06:15:17.644Z,1006.87
2023-04-29T06:16:17.575Z,1006.84
2023-04-29T06:17:17.536Z,1006.85
2023-04-29T06:18:17.539Z,1006.86
2023-04-29T06:19:17.445Z,1006.88
2023-04-29T06:20:18.329Z,1006.90
2023-04-29T06:21:17.385Z,1006.90
2023-04-29T06:22:17.365Z,1006.90
2023-04-29T06:23:17.397Z,1006.92
2023-04-29T06:24:17.301Z,1006.95
2023-04-29T06:25:17.261Z,1006.98
2023-04-29T06:26:17.225Z,1007.02
2023-04-29T06:27:17.201Z,1007.03
2023-04-29T06:28:17.233Z,1007.07
2023-04-29T06:29:17.206Z,1007.11
2023-04-29T06:30:17.093Z,1007.12
2023-04-29T06:31:17.170Z,1007.14
2023-04-29T06:32:18.577Z,1007.14
2023-04-29T06:33:17.011Z,1007.13
2023-04-29T06:34:16.981Z,1007.16
2023-04-29T06:35:17.585Z,1007.20
2023-04-29T06:36:16.910Z,1007.20
2023-04-29T06:37:16.895Z,1007.20
2023-04-29T06:38:16.845Z,1007.15
2023-04-29T06:39:16.817Z,1007.22
2023-04-29T06:40:16.801Z,1007.26
2023-04-29T06:41:19.002Z,1007.25
2023-04-29T06:42:16.725Z,1007.30
2023-04-29T06:43:16.690Z,1007.29
2023-04-29T06:44:16.661Z,1007.34
2023-04-29T06:45:16.631Z,1007.32
2023-04-29T06:46:16.624Z,1007.31
2023-04-29T06:47:16.658Z,1007.36
2023-04-29T06:48:16.529Z,1007.36
2023-04-29T06:49:16.498Z,1007.38
2023-04-29T06:50:16.464Z,1007.39
2023-04-29T06:51:16.441Z,1007.38
2023-04-29T06:52:16.400Z,1007.44
2023-04-29T06:53:16.434Z,1007.42
2023-04-29T06:54:16.334Z,1007.53
2023-04-29T06:55:16.316Z,1007.43
2023-04-29T06:56:17.160Z,1007.55
2023-04-29T06:57:16.237Z,1007.57
2023-04-29T06:58:16.223Z,1007.50
2023-04-29T06:59:16.314Z,1007.54
2023-04-29T07:00:16.143Z,1007.56
2023-04-29T07:01:16.187Z,1007.54
2023-04-29T07:02:16.117Z,1007.60
2023-04-29T07:03:16.192Z,1007.56
2023-04-29T07:04:16.107Z,1007.52
2023-04-29T07:05:15.992Z,1007.56
2023-04-29T07:06:15.966Z,1007.61
2023-04-29T07:07:15.928Z,1007.65
2023-04-29T07:08:15.897Z,1007.69
2023-04-29T07:09:16.589Z,1007.61
2023-04-29T07:10:15.837Z,1007.63
2023-04-29T07:11:15.803Z,1007.66
2023-04-29T07:12:15.764Z,1007.65
2023-04-29T07:13:15.742Z,1007.69
2023-04-29T07:14:15.693Z,1007.67
2023-04-29T07:15:15.773Z,1007.67
2023-04-29T07:16:15.646Z,1007.68
2023-04-29T07:17:15.603Z,1007.74
2023-04-29T07:18:15.576Z,1007.70
2023-04-29T07:19:15.542Z,1007.75
2023-04-29T07:20:15.566Z,1007.76
2023-04-29T07:21:15.586Z,1007.77
2023-04-29T07:22:15.433Z,1007.76
2023-04-29T07:23:15.402Z,1007.80
2023-04-29T07:24:15.368Z,1007.81
2023-04-29T07:25:15.354Z,1007.83
2023-04-29T07:26:15.367Z,1007.91
2023-04-29T07:27:15.294Z,1007.95
2023-04-29T07:28:15.249Z,1007.89
2023-04-29T07:29:15.246Z,1007.96
2023-04-29T07:30:15.197Z,1007.98
2023-04-29T07:31:15.163Z,1008.02
2023-04-29T07:32:15.174Z,1007.98
2023-04-29T07:33:15.093Z,1007.99
2023-04-29T07:34:15.064Z,1008.02
2023-04-29T07:35:15.037Z,1008.01
2023-04-29T07:36:15.714Z,1008.05
2023-04-29T07:37:14.957Z,1008.07
2023-04-29T07:38:14.997Z,1008.17
2023-04-29T07:39:14.911Z,1008.06
2023-04-29T07:40:14.857Z,1008.08
2023-04-29T07:41:14.828Z,1008.18
2023-04-29T07:42:14.792Z,1008.17
2023-04-29T07:43:14.773Z,1008.21
2023-04-29T07:44:15.266Z,1008.22
2023-04-29T07:45:14.741Z,1008.19
2023-04-29T07:46:14.686Z,1008.22
2023-04-29T07:47:14.628Z,1008.24
2023-04-29T07:48:14.594Z,1008.30
2023-04-29T07:49:14.640Z,1008.27
2023-04-29T07:50:14.534Z,1008.28
2023-04-29T07:51:14.522Z,1008.34
2023-04-29T07:52:14.466Z,1008.39
2023-04-29T07:53:14.433Z,1008.40
2023-04-29T07:54:14.424Z,1008.40
2023-04-29T07:55:14.417Z,1008.37
2023-04-29T07:56:14.343Z,1008.42
2023-04-29T07:57:14.303Z,1008.45
2023-04-29T07:58:14.288Z,1008.46
2023-04-29T07:59:14.238Z,1008.51
2023-04-29T08:00:14.209Z,1008.49
2023-04-29T08:01:14.238Z,1008.53
2023-04-29T08:02:14.224Z,1008.48
2023-04-29T08:03:14.216Z,1008.55
2023-04-29T08:04:14.395Z,1008.57
2023-04-29T08:05:14.399Z,1008.58
2023-04-29T08:06:14.093Z,1008.58
2023-04-29T08:07:14.060Z,1008.63
2023-04-29T08:08:13.954Z,1008.67
2023-04-29T08:09:13.924Z,1008.71
2023-04-29T08:10:13.881Z,1008.65
2023-04-29T08:11:13.864Z,1008.70
2023-04-29T08:12:13.886Z,1008.75
2023-04-29T08:13:13.858Z,1008.77
2023-04-29T08:14:13.805Z,1008.75
2023-04-29T08:15:13.725Z,1008.77
2023-04-29T08:16:13.744Z,1008.81
2023-04-29T08:17:13.661Z,1008.81
2023-04-29T08:18:13.624Z,1008.84
2023-04-29T08:19:13.659Z,1008.88
2023-04-29T08:20:13.576Z,1008.89
2023-04-29T08:21:13.534Z,1008.89
2023-04-29T08:22:13.506Z,1008.94
2023-04-29T08:23:13.466Z,1008.92
2023-04-29T08:24:13.438Z,1008.93
2023-04-29T08:25:13.512Z,1008.97
2023-04-29T08:26:13.370Z,1008.93
2023-04-29T08:27:13.357Z,1008.94
2023-04-29T08:28:13.329Z,1008.94
2023-04-29T08:29:13.268Z,1008.93
2023-04-29T08:30:13.261Z,1008.94
2023-04-29T08:31:13.285Z,1008.97
2023-04-29T08:32:13.183Z,1009.06
2023-04-29T08:33:13.205Z,1009.04
2023-04-29T08:34:13.114Z,1009.08
2023-04-29T08:35:13.082Z,1009.13
2023-04-29T08:36:13.052Z,1009.16
2023-04-29T08:37:13.077Z,1009.16
2023-04-29T08:38:12.977Z,1009.21
2023-04-29T08:39:12.958Z,1009.23
2023-04-29T08:40:12.917Z,1009.21
2023-04-29T08:41:12.887Z,1009.26
2023-04-29T08:42:12.934Z,1009.29
2023-04-29T08:43:12.899Z,1009.23
2023-04-29T08:44:12.790Z,1009.29
2023-04-29T08:45:12.758Z,1009.31
2023-04-29T08:46:12.773Z,1009.40
2023-04-29T08:47:12.697Z,1009.36
2023-04-29T08:48:12.805Z,1009.45
2023-04-29T08:49:12.683Z,1009.42
2023-04-29T08:50:12.595Z,1009.48
2023-04-29T08:51:12.570Z,1009.48
2023-04-29T08:52:12.525Z,1009.48
2023-04-29T08:53:12.557Z,1009.51
2023-04-29T08:54:12.461Z,1009.54
2023-04-29T08:55:12.439Z,1009.50
2023-04-29T08:56:12.413Z,1009.53
2023-04-29T08:57:12.365Z,1009.50
2023-04-29T08:58:12.332Z,1009.57
2023-04-29T08:59:12.348Z,1009.52
2023-04-29T09:00:12.274Z,1009.58
2023-04-29T09:01:12.257Z,1009.58
2023-04-29T09:02:12.213Z,1009.59
2023-04-29T09:03:12.242Z,1009.70
2023-04-29T09:04:12.174Z,1009.61
2023-04-29T09:05:12.158Z,1009.62
2023-04-29T09:06:12.081Z,1009.61
2023-04-29T09:07:12.041Z,1009.64
2023-04-29T09:08:12.026Z,1009.61
2023-04-29T09:09:11.979Z,1009.66
2023-04-29T09:10:12.059Z,1009.65
2023-04-29T09:11:11.912Z,1009.66
2023-04-29T09:12:11.880Z,1009.74
2023-04-29T09:13:11.889Z,1009.72
2023-04-29T09:14:11.820Z,1009.78
2023-04-29T09:15:11.775Z,1009.71
2023-04-29T09:16:11.869Z,1009.72
2023-04-29T09:17:11.706Z,1009.81
2023-04-29T09:18:11.696Z,1009.74
2023-04-29T09:19:11.650Z,1009.77
2023-04-29T09:20:11.616Z,1009.86
2023-04-29T09:21:11.589Z,1009.86
2023-04-29T09:22:11.620Z,1009.85
2023-04-29T09:23:11.516Z,1009.88
2023-04-29T09:24:11.483Z,1009.92
2023-04-29T09:25:11.517Z,1009.96
2023-04-29T09:26:11.427Z,1009.95
2023-04-29T09:27:11.385Z,1009.94
2023-04-29T09:28:11.414Z,1009.98
2023-04-29T09:29:11.330Z,1009.96
2023-04-29T09:30:11.288Z,1009.98
2023-04-29T09:31:11.260Z,1010.08
2023-04-29T09:32:11.226Z,1010.08
2023-04-29T09:33:11.246Z,1010.07
2023-04-29T09:34:11.206Z,1010.24
2023-04-29T09:35:11.128Z,1010.13
2023-04-29T09:36:11.100Z,1010.21
2023-04-29T09:37:11.067Z,1010.08
2023-04-29T09:38:11.027Z,1010.22
2023-04-29T09:39:11.012Z,1010.14
2023-04-29T09:40:14.626Z,1010.16
2023-04-29T09:41:10.949Z,1010.23
2023-04-29T09:42:10.961Z,1010.14
2023-04-29T09:43:10.875Z,1010.22
2023-04-29T09:44:11.747Z,1010.28
2023-04-29T09:45:10.873Z,1010.23
2023-04-29T09:46:10.812Z,1010.35
2023-04-29T09:47:11.630Z,1010.30
2023-04-29T09:48:10.710Z,1010.29
2023-04-29T09:49:10.682Z,1010.35
2023-04-29T09:50:10.668Z,1010.33
2023-04-29T09:51:10.605Z,1010.31
2023-04-29T09:52:10.717Z,1010.33
2023-04-29T09:53:10.550Z,1010.33
2023-04-29T09:54:10.561Z,1010.44
2023-04-29T09:55:10.519Z,1010.43
2023-04-29T09:56:10.452Z,1010.49
2023-04-29T09:57:10.421Z,1010.42
2023-04-29T09:58:10.443Z,1010.40
2023-04-29T09:59:10.384Z,1010.43
2023-04-29T10:00:10.338Z,1010.47
2023-04-29T10:01:10.350Z,1010.50
2023-04-29T10:02:10.318Z,1010.49
2023-04-29T10:03:10.269Z,1010.50
2023-04-29T10:04:10.321Z,1010.60
2023-04-29T10:05:10.354Z,1010.55
2023-04-29T10:06:10.120Z,1010.60
2023-04-29T10:07:10.099Z,1010.63
2023-04-29T10:08:10.061Z,1010.56
2023-04-29T10:09:10.050Z,1010.65
2023-04-29T10:10:12.643Z,1010.63
2023-04-29T10:11:15.650Z,1010.60
2023-04-29T10:12:09.915Z,1010.64
2023-04-29T10:13:09.875Z,1010.71
2023-04-29T10:14:09.888Z,1010.64
2023-04-29T10:15:09.830Z,1010.69
2023-04-29T10:16:09.872Z,1010.77
2023-04-29T10:17:09.763Z,1010.71
2023-04-29T10:18:09.780Z,1010.76
2023-04-29T10:19:09.734Z,1010.72
2023-04-29T10:20:09.691Z,1010.73
2023-04-29T10:21:09.635Z,1010.75
2023-04-29T10:22:09.684Z,1010.76
2023-04-29T10:23:09.618Z,1010.77
2023-04-29T10:24:09.538Z,1010.80
2023-04-29T10:25:09.507Z,1010.79
2023-04-29T10:26:09.498Z,1010.83
2023-04-29T10:27:09.560Z,1010.88
2023-04-29T10:28:09.397Z,1010.86
2023-04-29T10:29:09.365Z,1010.87
2023-04-29T10:30:09.331Z,1010.92
2023-04-29T10:31:09.368Z,1010.95
2023-04-29T10:32:09.291Z,1010.92
2023-04-29T10:33:09.334Z,1010.93
2023-04-29T10:34:09.232Z,1010.96
2023-04-29T10:35:09.191Z,1010.97
2023-04-29T10:36:09.166Z,1011.03
2023-04-29T10:37:09.103Z,1011.01
2023-04-29T10:38:09.103Z,1010.98
2023-04-29T10:39:09.100Z,1011.05
2023-04-29T10:40:09.019Z,1010.99
2023-04-29T10:41:08.992Z,1011.03
2023-04-29T10:42:08.993Z,1011.04
2023-04-29T10:43:08.916Z,1011.01
2023-04-29T10:44:08.890Z,1011.09
2023-04-29T10:45:08.966Z,1011.03
2023-04-29T10:46:08.905Z,1011.06
2023-04-29T10:47:08.774Z,1011.09
2023-04-29T10:48:08.838Z,1011.14
2023-04-29T10:49:08.742Z,1011.10
2023-04-29T10:50:08.684Z,1011.09
2023-04-29T10:51:08.647Z,1011.11
2023-04-29T10:52:08.736Z,1011.13
2023-04-29T10:53:08.610Z,1011.14
2023-04-29T10:54:08.572Z,1011.14
2023-04-29T10:55:08.521Z,1011.10
2023-04-29T10:56:08.509Z,1011.23
2023-04-29T10:57:08.450Z,1011.15
2023-04-29T10:58:08.512Z,1011.15
2023-04-29T10:59:08.398Z,1011.21
2023-04-29T11:00:08.356Z,1011.19
2023-04-29T11:01:08.380Z,1011.21
2023-04-29T11:02:08.316Z,1011.16
2023-04-29T11:03:08.344Z,1011.22
2023-04-29T11:04:08.383Z,1011.23
2023-04-29T11:05:08.235Z,1011.18
2023-04-29T11:06:08.258Z,1011.25
2023-04-29T11:07:08.170Z,1011.25
2023-04-29T11:08:08.118Z,1011.31
2023-04-29T11:09:08.068Z,1011.30
2023-04-29T11:10:08.092Z,1011.28
2023-04-29T11:11:08.006Z,1011.29
2023-04-29T11:12:08.002Z,1011.29
2023-04-29T11:13:08.005Z,1011.27
2023-04-29T11:14:07.920Z,1011.28
2023-04-29T11:15:07.934Z,1011.26
2023-04-29T11:16:08.116Z,1011.24
2023-04-29T11:17:07.840Z,1011.26
2023-04-29T11:18:08.685Z,1011.27
2023-04-29T11:19:07.767Z,1011.24
2023-04-29T11:20:07.753Z,1011.28
2023-04-29T11:21:07.723Z,1011.27
2023-04-29T11:22:07.720Z,1011.25
2023-04-29T11:23:07.653Z,1011.32
2023-04-29T11:24:07.662Z,1011.32
2023-04-29T11:25:07.599Z,1011.34
2023-04-29T11:26:07.540Z,1011.33
2023-04-29T11:27:07.515Z,1011.44
2023-04-29T11:28:07.549Z,1011.40
2023-04-29T11:29:07.443Z,1011.46
2023-04-29T11:30:07.419Z,1011.37
2023-04-29T11:31:07.407Z,1011.45
2023-04-29T11:32:07.525Z,1011.43
2023-04-29T11:33:07.414Z,1011.41
2023-04-29T11:34:07.460Z,1011.40
2023-04-29T11:35:07.284Z,1011.42
2023-04-29T11:36:07.241Z,1011.41
2023-04-29T11:37:07.192Z,1011.47
2023-04-29T11:38:07.162Z,1011.47
2023-04-29T11:39:07.152Z,1011.47
2023-04-29T11:40:07.203Z,1011.50
2023-04-29T11:41:07.077Z,1011.51
2023-04-29T11:42:07.100Z,1011.51
2023-04-29T11:43:07.016Z,1011.54
2023-04-29T11:44:06.982Z,1011.58
2023-04-29T11:45:06.979Z,1011.57
2023-04-29T11:46:07.146Z,1011.61
2023-04-29T11:47:06.883Z,1011.60
2023-04-29T11:48:06.934Z,1011.63
2023-04-29T11:49:06.862Z,1011.65
2023-04-29T11:50:06.799Z,1011.68
2023-04-29T11:51:06.861Z,1011.69
2023-04-29T11:52:06.763Z,1011.71
2023-04-29T11:53:06.693Z,1011.77
2023-04-29T11:54:08.218Z,1011.78
2023-04-29T11:55:06.636Z,1011.78
2023-04-29T11:56:06.620Z,1011.75
2023-04-29T11:57:06.670Z,1011.73
2023-04-29T11:58:06.631Z,1011.76
2023-04-29T11:59:06.534Z,1011.78
2023-04-29T12:00:08.681Z,1011.82
2023-04-29T12:01:06.475Z,1011.86
2023-04-29T12:02:06.452Z,1011.84
2023-04-29T12:03:06.588Z,1011.81
2023-04-29T12:04:06.548Z,1011.89
2023-04-29T12:05:06.733Z,1011.86